Eggleston, Virginia
Current Conditions -  °F | °C
As of 11:55 AM on Friday 24 Oct 2014 (Local Time) from KPSK Reporting Station
Clear Clear  
Wind Chill: 56°   Ceiling: Unl
Heat Index: 56°   Visibility: 10mi
Dew Point: 44°   Wind: 3mph
Humidity: 63%   Direction: 320°NW
Pressure: 30.12"   Gusts: NA
Location:  37.29°N, 80.62°W
Report Text: KPSK 241555Z AUTO 32003KT 10SM CLR 13/06 A3012 RMK AO2 T01330064
Loading
Personal Weather Stations






























Interactive Weather Map
Tropical Storm Tracking
New forecast layout! Learn more

10-Day Weather Forecast

Advertisements
Track Severe Weather on mobile